Daniel K — PBIR — position and weather

sailwx.info

Track history (hours):
 
Tides and Currents Weather Stations Pressure Air Temp Water Temp Dewpoint Dewpoint Depression Visibility Wind Speed Wind Dir Waves Ship Positions

Daniel K

Last reported at 2018-Jan-11 06:52 UTC. Time now 2018-Jan-23 08:11 UTC.
Position N 37°32' W 001°00'.
Warning: this ship's position is 12 days out of date.

Length 90 m; draft 5.3 m.

Type: Cargo ship. MMSI: 244336000.

Date/timePositionNaut miles runAvg speedWind from/ knotsBaromVisibWave heightAir tempDewpointWater temp
2018-Jan-11 06:52N 37°32' W 001°00'219 8.8
2018-Jan-10 05:51N 36°00' W 005°08'411.8
2018-Jan-10 05:30N 35°59' W 005°13'612.2
2018-Jan-10 05:00N 35°59' W 005°21'612.6
2018-Jan-10 04:31N 35°57' W 005°28'612.1
2018-Jan-10 04:00N 35°56' W 005°36'811.2
2018-Jan-10 03:16N 35°55' W 005°46'253 8.6
2018-Jan-08 21:40N 38°25' W 010°01'210.2
2018-Jan-08 21:30N 38°27' W 010°02'510.0
2018-Jan-08 21:00N 38°32' W 010°03'610.2
2018-Jan-08 20:26N 38°38' W 010°05'510.2
2018-Jan-08 19:56N 38°42' W 010°06'410.0
2018-Jan-08 19:30N 38°47' W 010°06'5 9.9
2018-Jan-08 19:00N 38°52' W 010°06'5 9.9
2018-Jan-08 18:30N 38°57' W 010°06'5 9.6
2018-Jan-08 18:00N 39°01' W 010°06'5 9.4
2018-Jan-08 17:26N 39°07' W 010°06'5 9.6
2018-Jan-08 16:56N 39°12' W 010°06'  
2018-Jan-05 11:17N 49°50' W 003°21'4 6.3
2018-Jan-05 10:37N 49°52' W 003°16'3 5.7
2018-Jan-05 10:09N 49°53' W 003°12'1 5.4
2018-Jan-05 10:00N 49°54' W 003°11'7 4.5
2018-Jan-05 08:34N 49°57' W 003°02'0 3.8
2018-Jan-05 08:26N 49°57' W 003°02'2 4.5
2018-Jan-05 08:00N 49°58' W 002°59'2 4.2
2018-Jan-05 07:30N 49°59' W 002°56'2 4.6
2018-Jan-05 07:00N 50°00' W 002°53'3 4.9
2018-Jan-05 06:26N 50°01' W 002°49'2 5.3
2018-Jan-05 06:00N 50°02' W 002°45'3 6.3
2018-Jan-05 05:30N 50°03' W 002°41'96 5.8
2018-Jan-04 13:04N 50°30' W 000°17'1 5.0
2018-Jan-04 12:53N 50°30' W 000°16'5 4.7
2018-Jan-04 11:50N 50°31' W 000°09'1 3.9
2018-Jan-04 11:30N 50°31' W 000°07'2 3.6
2018-Jan-04 11:00N 50°31' W 000°04'2 3.0
2018-Jan-04 10:30N 50°32' W 000°01'1 2.9
2018-Jan-04 10:00N 50°32' E 000°01'2 3.1
2018-Jan-04 09:30N 50°32' E 000°03'2 4.2
2018-Jan-04 09:00N 50°33' E 000°06'3 5.8
2018-Jan-04 08:30N 50°34' E 000°11'4 7.2
2018-Jan-04 08:00N 50°35' E 000°16'610.2
2018-Jan-04 07:27N 50°36' E 000°25'511.5
2018-Jan-04 07:00N 50°38' E 000°32'510.6
2018-Jan-04 06:30N 50°41' E 000°39'510.5
2018-Jan-04 06:00N 50°44' E 000°46'510.4
2018-Jan-04 05:30N 50°47' E 000°53'510.1
2018-Jan-04 05:00N 50°49' E 000°60'23 7.4
2018-Jan-04 01:55N 51°05' E 001°27'2 4.7
2018-Jan-04 01:30N 51°06' E 001°29'2 4.3
2018-Jan-04 01:00N 51°08' E 001°31'2 4.1
2018-Jan-04 00:30N 51°10' E 001°32'2 4.5
2018-Jan-04 00:00N 51°12' E 001°34'3 6.2
2018-Jan-03 23:30N 51°15' E 001°36'4 8.6
2018-Jan-03 23:00N 51°19' E 001°36'510.0
2018-Jan-03 22:30N 51°23' E 001°32'3 6.3
2018-Jan-03 22:00N 51°25' E 001°28'0 0.1
2018-Jan-03 21:30N 51°25' E 001°28'0 0.1
2018-Jan-03 21:00N 51°25' E 001°28'0 0.0
2018-Jan-03 20:30N 51°25' E 001°28'0 0.0
2018-Jan-03 20:00N 51°25' E 001°28'0 0.1
2018-Jan-03 19:30N 51°25' E 001°28'0 0.1
2018-Jan-03 19:00N 51°25' E 001°28'0 0.0
2018-Jan-03 18:30N 51°25' E 001°28'0 0.0
2018-Jan-03 18:00N 51°25' E 001°28'0 0.0
2018-Jan-03 17:31N 51°25' E 001°28'0 0.0
2018-Jan-03 17:00N 51°25' E 001°28'0 0.0
2018-Jan-03 16:30N 51°25' E 001°28'0 0.0
2018-Jan-03 16:01N 51°25' E 001°28'0 0.0
2018-Jan-03 15:29N 51°25' E 001°28'0 0.0
2018-Jan-03 14:59N 51°25' E 001°28'0 0.0
2018-Jan-03 14:29N 51°25' E 001°28'0 0.1
2018-Jan-03 13:59N 51°25' E 001°28'0 0.1
2018-Jan-03 13:30N 51°25' E 001°28'0 0.2
2018-Jan-03 13:00N 51°25' E 001°28'0 0.2
2018-Jan-03 12:30N 51°25' E 001°28'0 0.0
2018-Jan-03 12:00N 51°25' E 001°28'0 0.0
2018-Jan-03 11:30N 51°25' E 001°28'0 0.1
2018-Jan-03 11:00N 51°25' E 001°28'1 2.1
2018-Jan-03 10:30N 51°25' E 001°27'0 0.6
2018-Jan-03 10:00N 51°25' E 001°27'0 0.3
2018-Jan-03 09:30N 51°25' E 001°27'0 0.0
2018-Jan-03 09:00N 51°25' E 001°27'0 0.0
2018-Jan-03 08:30N 51°25' E 001°27'0 0.0
2018-Jan-03 08:00N 51°25' E 001°27'0 0.0
2018-Jan-03 07:30N 51°25' E 001°27'0 0.0
2018-Jan-03 07:00N 51°25' E 001°27'0 0.0
2018-Jan-03 06:30N 51°25' E 001°27'0 0.0
2018-Jan-03 06:01N 51°25' E 001°27'0 0.0
2018-Jan-03 05:30N 51°25' E 001°27'0 0.0
2018-Jan-03 05:01N 51°25' E 001°27'0 0.0
2018-Jan-03 04:30N 51°25' E 001°27'0 0.0
2018-Jan-03 04:00N 51°25' E 001°27'0 0.0
2018-Jan-03 03:30N 51°25' E 001°27'0 0.0
2018-Jan-03 03:00N 51°25' E 001°27'0 0.0
2018-Jan-03 02:30N 51°25' E 001°27'0 0.0
2018-Jan-03 02:00N 51°25' E 001°27'0 0.1
2018-Jan-03 01:30N 51°25' E 001°27'0 0.1
2018-Jan-03 01:00N 51°25' E 001°27'0 0.2
2018-Jan-03 00:30N 51°25' E 001°27'0 0.0
2018-Jan-03 00:00N 51°25' E 001°27'0 0.0
2018-Jan-02 23:30N 51°25' E 001°27'0 0.0
2018-Jan-02 23:01N 51°25' E 001°27'0 0.0
2018-Jan-02 22:31N 51°25' E 001°27'0 0.0
2018-Jan-02 22:00N 51°25' E 001°27'0 0.0
2018-Jan-02 21:31N 51°25' E 001°27'0 0.0
2018-Jan-02 21:01N 51°25' E 001°27'0 0.0
2018-Jan-02 20:31N 51°25' E 001°27'0 0.1
2018-Jan-02 20:00N 51°25' E 001°27'0 0.2
2018-Jan-02 19:31N 51°25' E 001°27'0 0.1
2018-Jan-02 19:00N 51°25' E 001°27'0 0.0
2018-Jan-02 18:30N 51°25' E 001°27'0 0.1
2018-Jan-02 18:00N 51°25' E 001°27'2 3.5
2018-Jan-02 17:30N 51°24' E 001°30'4 8.6
2018-Jan-02 17:00N 51°21' E 001°35'5 9.2
2018-Jan-02 16:30N 51°17' E 001°36'5 9.9
2018-Jan-02 16:00N 51°12' E 001°34'611.0
2018-Jan-02 15:30N 51°07' E 001°29'2 4.2
2018-Jan-02 15:01N 51°07' E 001°33'3 6.7
2018-Jan-02 14:30N 51°09' E 001°37'3 6.6
2018-Jan-02 14:00N 51°11' E 001°41'3 6.7
2018-Jan-02 13:30N 51°13' E 001°45'3 6.4
2018-Jan-02 13:00N 51°16' E 001°48'3 6.3
2018-Jan-02 12:30N 51°18' E 001°50'3 6.8
2018-Jan-02 12:00N 51°21' E 001°53'4 7.7
2018-Jan-02 11:30N 51°25' E 001°56'4 8.8
2018-Jan-02 11:00N 51°29' E 001°59'5 9.4
2018-Jan-02 10:30N 51°32' E 002°04'510.3
2018-Jan-02 10:00N 51°36' E 002°10'146 9.2
2018-Jan-01 18:09N 53°29' E 004°42'2 7.6
2018-Jan-01 17:56N 53°30' E 004°45'4 7.3
2018-Jan-01 17:21N 53°31' E 004°52'  
Track history (hours):
 
Tides and Currents Weather Stations Pressure Air Temp Water Temp Dewpoint Dewpoint Depression Visibility Wind Speed Wind Dir Waves Ship Positions

Daniel K

Last reported at 2018-Jan-11 06:52 UTC. Time now 2018-Jan-23 08:11 UTC.
Position N 37°32' W 001°00'.
Warning: this ship's position is 12 days out of date.

Length 90 m; draft 5.3 m.

Type: Cargo ship. MMSI: 244336000.

Date/timePositionNaut miles runAvg speedWind from/ knotsBaromVisibWave heightAir tempDewpointWater temp
2018-Jan-11 06:52N 37°32' W 001°00'219 8.8
2018-Jan-10 05:51N 36°00' W 005°08'411.8
2018-Jan-10 05:30N 35°59' W 005°13'612.2
2018-Jan-10 05:00N 35°59' W 005°21'612.6
2018-Jan-10 04:31N 35°57' W 005°28'612.1
2018-Jan-10 04:00N 35°56' W 005°36'811.2
2018-Jan-10 03:16N 35°55' W 005°46'253 8.6
2018-Jan-08 21:40N 38°25' W 010°01'210.2
2018-Jan-08 21:30N 38°27' W 010°02'510.0
2018-Jan-08 21:00N 38°32' W 010°03'610.2
2018-Jan-08 20:26N 38°38' W 010°05'510.2
2018-Jan-08 19:56N 38°42' W 010°06'410.0
2018-Jan-08 19:30N 38°47' W 010°06'5 9.9
2018-Jan-08 19:00N 38°52' W 010°06'5 9.9
2018-Jan-08 18:30N 38°57' W 010°06'5 9.6
2018-Jan-08 18:00N 39°01' W 010°06'5 9.4
2018-Jan-08 17:26N 39°07' W 010°06'5 9.6
2018-Jan-08 16:56N 39°12' W 010°06'  
2018-Jan-05 11:17N 49°50' W 003°21'4 6.3
2018-Jan-05 10:37N 49°52' W 003°16'3 5.7
2018-Jan-05 10:09N 49°53' W 003°12'1 5.4
2018-Jan-05 10:00N 49°54' W 003°11'7 4.5
2018-Jan-05 08:34N 49°57' W 003°02'0 3.8
2018-Jan-05 08:26N 49°57' W 003°02'2 4.5
2018-Jan-05 08:00N 49°58' W 002°59'2 4.2
2018-Jan-05 07:30N 49°59' W 002°56'2 4.6
2018-Jan-05 07:00N 50°00' W 002°53'3 4.9
2018-Jan-05 06:26N 50°01' W 002°49'2 5.3
2018-Jan-05 06:00N 50°02' W 002°45'3 6.3
2018-Jan-05 05:30N 50°03' W 002°41'96 5.8
2018-Jan-04 13:04N 50°30' W 000°17'1 5.0
2018-Jan-04 12:53N 50°30' W 000°16'5 4.7
2018-Jan-04 11:50N 50°31' W 000°09'1 3.9
2018-Jan-04 11:30N 50°31' W 000°07'2 3.6
2018-Jan-04 11:00N 50°31' W 000°04'2 3.0
2018-Jan-04 10:30N 50°32' W 000°01'1 2.9
2018-Jan-04 10:00N 50°32' E 000°01'2 3.1
2018-Jan-04 09:30N 50°32' E 000°03'2 4.2
2018-Jan-04 09:00N 50°33' E 000°06'3 5.8
2018-Jan-04 08:30N 50°34' E 000°11'4 7.2
2018-Jan-04 08:00N 50°35' E 000°16'610.2
2018-Jan-04 07:27N 50°36' E 000°25'511.5
2018-Jan-04 07:00N 50°38' E 000°32'510.6
2018-Jan-04 06:30N 50°41' E 000°39'510.5
2018-Jan-04 06:00N 50°44' E 000°46'510.4
2018-Jan-04 05:30N 50°47' E 000°53'510.1
2018-Jan-04 05:00N 50°49' E 000°60'23 7.4
2018-Jan-04 01:55N 51°05' E 001°27'2 4.7
2018-Jan-04 01:30N 51°06' E 001°29'2 4.3
2018-Jan-04 01:00N 51°08' E 001°31'2 4.1
2018-Jan-04 00:30N 51°10' E 001°32'2 4.5
2018-Jan-04 00:00N 51°12' E 001°34'3 6.2
2018-Jan-03 23:30N 51°15' E 001°36'4 8.6
2018-Jan-03 23:00N 51°19' E 001°36'510.0
2018-Jan-03 22:30N 51°23' E 001°32'3 6.3
2018-Jan-03 22:00N 51°25' E 001°28'0 0.1
2018-Jan-03 21:30N 51°25' E 001°28'0 0.1
2018-Jan-03 21:00N 51°25' E 001°28'0 0.0
2018-Jan-03 20:30N 51°25' E 001°28'0 0.0
2018-Jan-03 20:00N 51°25' E 001°28'0 0.1
2018-Jan-03 19:30N 51°25' E 001°28'0 0.1
2018-Jan-03 19:00N 51°25' E 001°28'0 0.0
2018-Jan-03 18:30N 51°25' E 001°28'0 0.0
2018-Jan-03 18:00N 51°25' E 001°28'0 0.0
2018-Jan-03 17:31N 51°25' E 001°28'0 0.0
2018-Jan-03 17:00N 51°25' E 001°28'0 0.0
2018-Jan-03 16:30N 51°25' E 001°28'0 0.0
2018-Jan-03 16:01N 51°25' E 001°28'0 0.0
2018-Jan-03 15:29N 51°25' E 001°28'0 0.0
2018-Jan-03 14:59N 51°25' E 001°28'0 0.0
2018-Jan-03 14:29N 51°25' E 001°28'0 0.1
2018-Jan-03 13:59N 51°25' E 001°28'0 0.1
2018-Jan-03 13:30N 51°25' E 001°28'0 0.2
2018-Jan-03 13:00N 51°25' E 001°28'0 0.2
2018-Jan-03 12:30N 51°25' E 001°28'0 0.0
2018-Jan-03 12:00N 51°25' E 001°28'0 0.0
2018-Jan-03 11:30N 51°25' E 001°28'0 0.1
2018-Jan-03 11:00N 51°25' E 001°28'1 2.1
2018-Jan-03 10:30N 51°25' E 001°27'0 0.6
2018-Jan-03 10:00N 51°25' E 001°27'0 0.3
2018-Jan-03 09:30N 51°25' E 001°27'0 0.0
2018-Jan-03 09:00N 51°25' E 001°27'0 0.0
2018-Jan-03 08:30N 51°25' E 001°27'0 0.0
2018-Jan-03 08:00N 51°25' E 001°27'0 0.0
2018-Jan-03 07:30N 51°25' E 001°27'0 0.0
2018-Jan-03 07:00N 51°25' E 001°27'0 0.0
2018-Jan-03 06:30N 51°25' E 001°27'0 0.0
2018-Jan-03 06:01N 51°25' E 001°27'0 0.0
2018-Jan-03 05:30N 51°25' E 001°27'0 0.0
2018-Jan-03 05:01N 51°25' E 001°27'0 0.0
2018-Jan-03 04:30N 51°25' E 001°27'0 0.0
2018-Jan-03 04:00N 51°25' E 001°27'0 0.0
2018-Jan-03 03:30N 51°25' E 001°27'0 0.0
2018-Jan-03 03:00N 51°25' E 001°27'0 0.0
2018-Jan-03 02:30N 51°25' E 001°27'0 0.0
2018-Jan-03 02:00N 51°25' E 001°27'0 0.1
2018-Jan-03 01:30N 51°25' E 001°27'0 0.1
2018-Jan-03 01:00N 51°25' E 001°27'0 0.2
2018-Jan-03 00:30N 51°25' E 001°27'0 0.0
2018-Jan-03 00:00N 51°25' E 001°27'0 0.0
2018-Jan-02 23:30N 51°25' E 001°27'0 0.0
2018-Jan-02 23:01N 51°25' E 001°27'0 0.0
2018-Jan-02 22:31N 51°25' E 001°27'0 0.0
2018-Jan-02 22:00N 51°25' E 001°27'0 0.0
2018-Jan-02 21:31N 51°25' E 001°27'0 0.0
2018-Jan-02 21:01N 51°25' E 001°27'0 0.0
2018-Jan-02 20:31N 51°25' E 001°27'0 0.1
2018-Jan-02 20:00N 51°25' E 001°27'0 0.2
2018-Jan-02 19:31N 51°25' E 001°27'0 0.1
2018-Jan-02 19:00N 51°25' E 001°27'0 0.0
2018-Jan-02 18:30N 51°25' E 001°27'0 0.1
2018-Jan-02 18:00N 51°25' E 001°27'2 3.5
2018-Jan-02 17:30N 51°24' E 001°30'4 8.6
2018-Jan-02 17:00N 51°21' E 001°35'5 9.2
2018-Jan-02 16:30N 51°17' E 001°36'5 9.9
2018-Jan-02 16:00N 51°12' E 001°34'611.0
2018-Jan-02 15:30N 51°07' E 001°29'2 4.2
2018-Jan-02 15:01N 51°07' E 001°33'3 6.7
2018-Jan-02 14:30N 51°09' E 001°37'3 6.6
2018-Jan-02 14:00N 51°11' E 001°41'3 6.7
2018-Jan-02 13:30N 51°13' E 001°45'3 6.4
2018-Jan-02 13:00N 51°16' E 001°48'3 6.3
2018-Jan-02 12:30N 51°18' E 001°50'3 6.8
2018-Jan-02 12:00N 51°21' E 001°53'4 7.7
2018-Jan-02 11:30N 51°25' E 001°56'4 8.8
2018-Jan-02 11:00N 51°29' E 001°59'5 9.4
2018-Jan-02 10:30N 51°32' E 002°04'510.3
2018-Jan-02 10:00N 51°36' E 002°10'146 9.2
2018-Jan-01 18:09N 53°29' E 004°42'2 7.6
2018-Jan-01 17:56N 53°30' E 004°45'4 7.3
2018-Jan-01 17:21N 53°31' E 004°52'  

Dump ship's entire track history